»·PEaware :: N777CF KBUR-KLAS

N777CF :: KBUR-KLAS

FLIGHT INFORMATION

Flight Status: Arrived
Operator: Privately registered:
United States
More flights under this callsign
Pilot: Henry R. (2288)
Aircraft: CESSNA 500 CITATION 1
(C500)
More flights by this aircraft type
Origin: KBUR Bob Hope-Burbank
United States
Destination: KLAS McCarran Intl
United States
More flights between these airports :: More routes between these airports
Route: VNY9 DAG KEPEC3
File this flight plan on PilotEdge
Remarks: Note- could not find listing for a Cessna 510 to add this a / c to PilotEdge. I just logged it as a Cessna Citation 500
Altitude:
(Current/Filed)
25,000ft
Speed:
(Current/Filed)
250kts
Departed: 31-Oct-13 12:02 PM
Arrived: 31-Oct-13 12:59 PM
Distance/Time
Traveled:
193nm/0:56
Distance/Time
To Go:
Arrived

Flight Plot

Page will automatically refresh every two minutes.


Map Options




Map Legend


Flown Route
Filed Route
Departure Airport
Arrival Airport
Navaid (VOR, NDB)
Fix

Horizontal Profiles

Position Reports

Time Latitude Longitude Heading Altitude Ground
Speed
31-Oct-13 11:47 34.202219 -118.360606 256 780ft 0kts
31-Oct-13 11:48 34.202219 -118.360606 256 780ft 0kts
31-Oct-13 11:49 34.202219 -118.360606 256 780ft 0kts
31-Oct-13 11:50 34.202218 -118.360616 261 780ft 1kts
31-Oct-13 11:51 34.202322 -118.360606 91 780ft 0kts
31-Oct-13 11:52 34.202322 -118.360606 91 780ft 0kts
31-Oct-13 11:53 34.202322 -118.360606 91 780ft 0kts
31-Oct-13 11:54 34.202315 -118.360372 91 780ft 5kts
31-Oct-13 11:55 34.203834 -118.359215 346 780ft 14kts
31-Oct-13 11:56 34.207006 -118.360077 347 780ft 10kts
31-Oct-13 11:57 34.209869 -118.360873 347 780ft 10kts
31-Oct-13 11:58 34.210940 -118.360988 46 780ft 0kts
31-Oct-13 11:59 34.210404 -118.359882 166 780ft 5kts
31-Oct-13 12:00 34.182333 -118.351927 168 1506ft 178kts
31-Oct-13 12:01 34.127800 -118.388750 221 3152ft 260kts
31-Oct-13 12:02 34.079486 -118.450710 254 5080ft 261kts
31-Oct-13 12:03 34.113851 -118.517070 342 7098ft 264kts
31-Oct-13 12:04 34.185909 -118.504108 12 9119ft 268kts
31-Oct-13 12:05 34.259433 -118.491132 4 11124ft 265kts
31-Oct-13 12:06 34.329915 -118.479483 11 13061ft 262kts
31-Oct-13 12:07 34.392847 -118.435858 39 15062ft 263kts
31-Oct-13 12:08 34.440535 -118.369374 48 17063ft 258kts
31-Oct-13 12:09 34.483632 -118.300997 56 19042ft 251kts
31-Oct-13 12:10 34.525298 -118.233587 49 20730ft 249kts
31-Oct-13 12:11 34.566979 -118.166978 47 22322ft 245kts
31-Oct-13 12:12 34.607774 -118.101822 47 23911ft 238kts
31-Oct-13 12:13 34.634527 -118.028693 75 25201ft 251kts
31-Oct-13 12:14 34.645877 -117.935805 79 25254ft 304kts
31-Oct-13 12:15 34.656856 -117.832899 82 25244ft 309kts
31-Oct-13 12:16 34.670519 -117.729648 74 25248ft 309kts
31-Oct-13 12:17 34.697242 -117.629207 76 25229ft 320kts
31-Oct-13 12:18 34.725475 -117.522414 73 25252ft 318kts
31-Oct-13 12:19 34.749987 -117.428069 74 25239ft 285kts
31-Oct-13 12:20 34.774525 -117.331837 78 25245ft 307kts
31-Oct-13 12:21 34.799559 -117.232598 78 25247ft 307kts
31-Oct-13 12:22 34.823796 -117.135451 69 25245ft 301kts
31-Oct-13 12:23 34.844263 -117.053269 68 25239ft 306kts
31-Oct-13 12:24 34.869166 -116.954894 69 25241ft 297kts
31-Oct-13 12:25 34.893894 -116.855960 69 25235ft 304kts
31-Oct-13 12:26 34.918074 -116.758651 71 25233ft 297kts
31-Oct-13 12:27 34.941809 -116.662665 72 25235ft 295kts
31-Oct-13 12:28 34.968346 -116.567738 62 25099ft 312kts
31-Oct-13 12:29 35.032011 -116.485602 42 24261ft 344kts
31-Oct-13 12:30 35.102090 -116.404372 44 23760ft 350kts
31-Oct-13 12:31 35.169827 -116.319946 42 21820ft 338kts
31-Oct-13 12:32 35.232339 -116.241135 41 19821ft 310kts
31-Oct-13 12:33 35.290711 -116.167699 41 18141ft 288kts
31-Oct-13 12:34 35.344831 -116.099618 41 16876ft 273kts
31-Oct-13 12:35 35.397435 -116.033334 41 15758ft 274kts
31-Oct-13 12:36 35.451991 -115.964478 42 14838ft 286kts
31-Oct-13 12:37 35.507870 -115.893671 42 14037ft 290kts
31-Oct-13 12:38 35.564248 -115.821993 42 13238ft 293kts
31-Oct-13 12:39 35.619898 -115.751029 42 13011ft 280kts
31-Oct-13 12:40 35.673645 -115.682478 43 13012ft 281kts
31-Oct-13 12:41 35.729063 -115.611677 43 13005ft 291kts
31-Oct-13 12:42 35.799229 -115.568490 1 13002ft 289kts
31-Oct-13 12:43 35.879820 -115.566955 356 13000ft 288kts
31-Oct-13 12:44 35.957959 -115.551449 34 12995ft 298kts
31-Oct-13 12:45 36.003479 -115.467480 68 11412ft 288kts
31-Oct-13 12:46 36.027811 -115.378055 83 10764ft 270kts
31-Oct-13 12:47 36.025518 -115.285556 97 9139ft 258kts
31-Oct-13 12:48 36.022539 -115.207113 91 9010ft 206kts
31-Oct-13 12:49 36.014811 -115.137490 99 8331ft 210kts
31-Oct-13 12:50 36.013362 -115.070120 61 7999ft 182kts
31-Oct-13 12:51 36.056290 -115.040093 22 7124ft 183kts
31-Oct-13 12:52 36.104271 -115.026366 330 5600ft 180kts
31-Oct-13 12:53 36.131869 -115.067829 303 5094ft 125kts
31-Oct-13 12:54 36.147115 -115.102228 272 4569ft 119kts
31-Oct-13 12:55 36.136059 -115.136100 201 3414ft 108kts
31-Oct-13 12:56 36.110353 -115.150139 203 2500ft 97kts
31-Oct-13 12:57 36.090387 -115.161567 208 2183ft 36kts
31-Oct-13 12:58 36.089227 -115.162999 287 2183ft 4kts
31-Oct-13 12:59 36.086046 -115.165539 203 2183ft 18kts
31-Oct-13 13:00 36.082786 -115.167411 225 2183ft 6kts
31-Oct-13 13:01 36.081450 -115.169653 322 2183ft 5kts

Navigation Log

Ident Type
Flight plan parsing failed, navigation log unavailable